Airfield :
LOGIN :

Register | Disclaimer

   EN    FR    IT 

 










Legend :    VFR   Marginal VFR   IFR   Intensive IFR   Very Intensive IFR
Visi :
Ceiling :
>= 8 km
>= 3000ft
5 to 8 km
1000 to 3000 ft
1500m to 5 km
500 to 1000 ft
800 to 1500m
200 to 500 ft
< 800m
< 200 ft
Symbols :   Thunderstorms  Fog  Heavy snow  Heavy precipitations  Wind > 20 kt
SIGMETs :     Misc.  Thunderstorms  Icing  Turbulence  Mountain Waves  Volcanic Ashes







- Airport Elevation : 194 ft


EBCV - Chièvres

CURRENT METAR :
  • 270625Z AUTO VRB02KT 9999 SCT110/// 08/04 Q1013 BLU

EXPIRED METARs :
  • 270555Z AUTO 12003KT 9999 BKN150/// 06/04 Q1013 BLU
  • 270525Z AUTO VRB01KT 9999 BKN160/// 05/03 Q1013 BLU
  • 270455Z AUTO 12004KT 9999 FEW160/// BKN220/// 05/03 Q1013 BLU
  • 270425Z AUTO VRB02KT 9999 FEW170/// BKN220/// 05/02 Q1014 BLU
  • 270355Z AUTO VRB02KT 9999 BKN180/// 05/03 Q1014 BLU
  • 270325Z AUTO VRB02KT 9999 BKN180/// BKN230/// 05/02 Q1014 BLU

TAF TAF EBCV
Valid from the 27 at 07:00 until the 27 at 16:00 UTC


270541Z 2707/2716 13004KT 9999 SCT080 BKN100
BECMG 2710/2712 18010KT 9999 SCT050 BKN070 BY EBWM
No reported NOTAMs for that airfield.



MET'MAP, your aeronautical weather chart ! - Copyright ORBIFLY December 2007 - Disclaimer

ORBIFLY MET'MAP TEAM :

Programming & Development : Alexandra Zaïnal
Concept & Development : Baudouin d'Aumeries
Co-Development & Prog : Marc-Olivier Méhu
Technical & hardware support : Manuel Goepfert

Contact : metmap@orbifly.com




SOURCES & CREDITS :

   NOAA